Time;durP1;ratioP1;P1;durP2;ratioP2;P2;SDS_P1;SDS_P2;PMS_P1;PMS_P2;Temp;Humidity;BMP_temperature;BMP_pressure;BME280_temperature;BME280_humidity;BME280_pressure;Samples;Min_cycle;Max_cycle;Signal;HPM_P1;HPM_P2
2024/01/26 00:00:31;;;;;;;8.50;2.03;;;;;;;;;;5012191;28;20038;-75
2024/01/26 00:03:00;;;;;;;0.00;0.00;;;;;;;;;;5021442;28;20048;-76
2024/01/26 00:05:28;;;;;;;0.00;0.00;;;;;;;;;;5032936;28;20033;-76
2024/01/26 00:07:55;;;;;;;0.90;0.90;;;;;;;;;;5032874;28;20052;-76
2024/01/26 00:10:23;;;;;;;0.00;0.00;;;;;;;;;;5032827;28;20061;-76
2024/01/26 00:12:51;;;;;;;1.50;1.48;;;;;;;;;;5032736;28;20076;-75
2024/01/26 00:15:18;;;;;;;0.00;0.00;;;;;;;;;;5032651;28;20043;-75
2024/01/26 00:17:46;;;;;;;0.00;0.00;;;;;;;;;;5032784;28;20065;-75
2024/01/26 00:20:14;;;;;;;0.00;0.00;;;;;;;;;;5031430;28;20055;-75
2024/01/26 00:22:41;;;;;;;2.88;1.30;;;;;;;;;;5031187;28;20103;-74
2024/01/26 00:25:09;;;;;;;0.00;0.00;;;;;;;;;;5032718;28;20063;-75
2024/01/26 00:27:37;;;;;;;1.08;0.63;;;;;;;;;;5031372;28;20069;-75
2024/01/26 00:30:06;;;;;;;1.05;0.47;;;;;;;;;;5032499;28;20045;-75
2024/01/26 00:32:34;;;;;;;2.75;1.33;;;;;;;;;;5032530;28;20072;-75
2024/01/26 00:35:01;;;;;;;0.93;0.75;;;;;;;;;;5031270;28;20049;-74
2024/01/26 00:37:29;;;;;;;0.10;0.10;;;;;;;;;;5032315;28;20065;-75
2024/01/26 00:39:57;;;;;;;0.05;0.05;;;;;;;;;;5032851;28;20048;-75
2024/01/26 00:42:24;;;;;;;0.20;0.20;;;;;;;;;;5032448;28;20103;-75
2024/01/26 00:44:52;;;;;;;0.30;0.30;;;;;;;;;;5032539;28;20048;-74
2024/01/26 00:47:19;;;;;;;0.75;0.60;;;;;;;;;;5032354;28;20566;-74
2024/01/26 00:49:47;;;;;;;0.77;0.77;;;;;;;;;;5032404;28;20497;-73
2024/01/26 00:52:19;;;;;;;0.93;0.55;;;;;;;;;;5034593;28;20403;-74
2024/01/26 00:54:47;;;;;;;0.00;0.00;;;;;;;;;;5036327;28;20054;-75
2024/01/26 00:57:15;;;;;;;0.00;0.00;;;;;;;;;;5036672;28;20049;-75
2024/01/26 00:59:43;;;;;;;1.92;1.40;;;;;;;;;;5035018;28;20083;-74
2024/01/26 01:02:11;;;;;;;1.27;1.17;;;;;;;;;;5034998;28;20073;-75
2024/01/26 01:04:38;;;;;;;5.47;2.65;;;;;;;;;;5036288;28;20042;-75
2024/01/26 01:07:06;;;;;;;0.25;0.25;;;;;;;;;;5036388;28;20414;-74
2024/01/26 01:09:34;;;;;;;3.42;1.35;;;;;;;;;;5034996;28;20064;-74
2024/01/26 01:12:02;;;;;;;1.40;0.65;;;;;;;;;;5035024;28;20087;-74
2024/01/26 01:14:30;;;;;;;0.55;0.28;;;;;;;;;;5036096;28;20045;-75
2024/01/26 01:16:58;;;;;;;0.00;0.00;;;;;;;;;;5035979;28;20045;-75
2024/01/26 01:19:25;;;;;;;0.35;0.13;;;;;;;;;;5034820;28;20044;-75
2024/01/26 01:21:53;;;;;;;7.93;1.45;;;;;;;;;;5035798;28;20053;-74
2024/01/26 01:24:20;;;;;;;0.40;0.40;;;;;;;;;;5036020;28;20116;-74
2024/01/26 01:26:48;;;;;;;1.35;0.32;;;;;;;;;;5035969;28;20064;-74
2024/01/26 01:29:15;;;;;;;3.13;1.33;;;;;;;;;;5035884;28;20422;-74
2024/01/26 01:31:43;;;;;;;14.13;0.55;;;;;;;;;;5035824;28;20115;-75
2024/01/26 01:34:10;;;;;;;8.02;1.00;;;;;;;;;;5034604;28;20491;-75
2024/01/26 01:36:38;;;;;;;0.22;0.22;;;;;;;;;;5035642;28;20042;-75
2024/01/26 01:39:07;;;;;;;0.47;0.47;;;;;;;;;;5034506;28;20041;-74
2024/01/26 01:41:35;;;;;;;1.10;1.08;;;;;;;;;;5034404;28;20047;-75
2024/01/26 01:44:02;;;;;;;0.50;0.30;;;;;;;;;;5034421;28;20045;-75
2024/01/26 01:46:31;;;;;;;0.00;0.00;;;;;;;;;;5035576;28;20518;-74
2024/01/26 01:48:58;;;;;;;0.00;0.00;;;;;;;;;;5026718;28;20045;-74
2024/01/26 01:51:28;;;;;;;0.00;0.00;;;;;;;;;;5028380;28;20049;-75
2024/01/26 01:53:57;;;;;;;2.17;0.75;;;;;;;;;;5029608;28;20126;-75
2024/01/26 01:56:25;;;;;;;0.77;0.45;;;;;;;;;;5029515;28;20618;-74
2024/01/26 01:58:54;;;;;;;0.00;0.00;;;;;;;;;;5044702;28;20057;-75
2024/01/26 02:01:21;;;;;;;0.15;0.15;;;;;;;;;;5029256;28;20044;-75
2024/01/26 02:03:49;;;;;;;1.75;1.20;;;;;;;;;;5028389;28;20042;-75
2024/01/26 02:06:16;;;;;;;0.00;0.00;;;;;;;;;;5030823;28;20041;-75
2024/01/26 02:08:44;;;;;;;0.00;0.00;;;;;;;;;;5029648;28;20049;-74
2024/01/26 02:11:12;;;;;;;2.28;1.45;;;;;;;;;;5029662;28;20116;-75
2024/01/26 02:13:39;;;;;;;0.10;0.10;;;;;;;;;;5029120;28;20053;-75
2024/01/26 02:16:07;;;;;;;0.00;0.00;;;;;;;;;;5029829;28;20451;-75
2024/01/26 02:18:34;;;;;;;0.03;0.03;;;;;;;;;;5029721;28;20092;-74
2024/01/26 02:21:03;;;;;;;0.03;0.00;;;;;;;;;;5029533;28;20041;-75
2024/01/26 02:23:30;;;;;;;2.28;0.15;;;;;;;;;;5044414;28;20045;-74
2024/01/26 02:25:58;;;;;;;0.25;0.22;;;;;;;;;;5029650;28;20124;-75
2024/01/26 02:28:26;;;;;;;0.03;0.03;;;;;;;;;;5029592;28;20054;-75
2024/01/26 02:30:53;;;;;;;0.00;0.00;;;;;;;;;;5029588;28;20811;-73
2024/01/26 02:33:21;;;;;;;0.00;0.00;;;;;;;;;;5029292;28;20068;-75
2024/01/26 02:35:48;;;;;;;0.88;0.43;;;;;;;;;;5028921;28;20052;-74
2024/01/26 02:38:16;;;;;;;0.00;0.00;;;;;;;;;;5044827;28;20063;-74
2024/01/26 02:40:44;;;;;;;0.80;0.80;;;;;;;;;;5029794;28;20044;-74
2024/01/26 02:43:11;;;;;;;1.73;0.38;;;;;;;;;;5028949;28;20060;-74
2024/01/26 02:45:42;;;;;;;0.30;0.30;;;;;;;;;;5029122;28;20395;-75
2024/01/26 02:48:10;;;;;;;0.00;0.00;;;;;;;;;;5028860;28;20124;-75
2024/01/26 02:50:38;;;;;;;0.00;0.00;;;;;;;;;;5028928;28;20045;-75
2024/01/26 02:53:05;;;;;;;0.03;0.03;;;;;;;;;;5029062;28;20068;-75
2024/01/26 02:55:33;;;;;;;0.55;0.55;;;;;;;;;;5029212;28;20048;-75
2024/01/26 02:58:00;;;;;;;2.50;0.85;;;;;;;;;;5029158;28;20123;-74
2024/01/26 03:00:28;;;;;;;3.88;0.40;;;;;;;;;;5028253;28;20069;-75
2024/01/26 03:02:56;;;;;;;1.23;0.13;;;;;;;;;;5028949;28;20049;-74
2024/01/26 03:05:24;;;;;;;0.00;0.00;;;;;;;;;;5028678;28;20049;-74
2024/01/26 03:07:51;;;;;;;0.38;0.35;;;;;;;;;;5044812;28;20831;-74
2024/01/26 03:10:19;;;;;;;5.38;1.27;;;;;;;;;;5029439;28;20052;-75
2024/01/26 03:12:47;;;;;;;0.05;0.05;;;;;;;;;;5028839;28;20087;-75
2024/01/26 03:15:15;;;;;;;0.55;0.55;;;;;;;;;;5028408;28;20438;-75
2024/01/26 03:17:43;;;;;;;1.10;0.98;;;;;;;;;;5027232;28;20049;-75
2024/01/26 03:20:10;;;;;;;0.00;0.00;;;;;;;;;;5028621;28;20703;-75
2024/01/26 03:22:38;;;;;;;0.10;0.10;;;;;;;;;;5043537;28;20119;-75
2024/01/26 03:25:06;;;;;;;2.45;2.17;;;;;;;;;;5027982;28;20033;-76
2024/01/26 03:27:34;;;;;;;0.90;0.30;;;;;;;;;;5028614;28;20071;-76
2024/01/26 03:30:02;;;;;;;1.45;0.40;;;;;;;;;;5028425;28;20087;-74
2024/01/26 03:32:29;;;;;;;10.38;6.88;;;;;;;;;;5028319;28;20105;-75
2024/01/26 03:34:57;;;;;;;0.65;0.35;;;;;;;;;;5028039;28;20038;-76
2024/01/26 03:37:25;;;;;;;1.75;0.55;;;;;;;;;;5027561;28;20699;-73
2024/01/26 03:39:52;;;;;;;1.20;0.88;;;;;;;;;;5028251;28;20046;-74
2024/01/26 03:42:20;;;;;;;1.08;0.82;;;;;;;;;;5028371;28;20120;-74
2024/01/26 03:44:48;;;;;;;3.88;3.58;;;;;;;;;;5027916;28;20107;-75
2024/01/26 03:47:15;;;;;;;4.78;1.25;;;;;;;;;;5027979;28;20041;-73
2024/01/26 03:49:46;;;;;;;3.78;3.38;;;;;;;;;;5027486;28;20076;-74
2024/01/26 03:52:13;;;;;;;2.63;1.42;;;;;;;;;;5027992;28;20568;-74
2024/01/26 03:54:41;;;;;;;2.78;0.60;;;;;;;;;;5028066;28;20049;-74
2024/01/26 03:57:09;;;;;;;3.75;1.35;;;;;;;;;;5027603;28;20445;-74
2024/01/26 03:59:36;;;;;;;4.10;0.65;;;;;;;;;;5027349;28;20054;-73
2024/01/26 04:02:05;;;;;;;1.95;0.80;;;;;;;;;;5027790;28;20050;-73
2024/01/26 04:04:32;;;;;;;4.57;1.48;;;;;;;;;;5042885;28;20033;-75
2024/01/26 04:07:00;;;;;;;1.80;0.82;;;;;;;;;;5026313;28;20140;-73
2024/01/26 04:09:27;;;;;;;0.65;0.57;;;;;;;;;;5042761;28;20135;-73
2024/01/26 04:11:55;;;;;;;0.65;0.35;;;;;;;;;;5027133;28;20376;-74
2024/01/26 04:14:23;;;;;;;2.47;1.10;;;;;;;;;;5027549;28;20045;-73
2024/01/26 04:16:50;;;;;;;3.70;1.48;;;;;;;;;;5027545;28;20073;-74
2024/01/26 04:19:19;;;;;;;0.25;0.20;;;;;;;;;;5042654;28;20498;-74
2024/01/26 04:21:49;;;;;;;1.70;1.38;;;;;;;;;;5027232;28;20049;-74
2024/01/26 04:24:17;;;;;;;4.80;1.15;;;;;;;;;;5026762;28;20155;-73
2024/01/26 04:26:45;;;;;;;4.93;1.90;;;;;;;;;;5026716;28;20045;-74
2024/01/26 04:29:12;;;;;;;2.72;1.33;;;;;;;;;;5027239;28;20045;-72
2024/01/26 04:31:44;;;;;;;1.83;0.55;;;;;;;;;;5026168;28;20132;-73
2024/01/26 04:34:12;;;;;;;9.50;2.15;;;;;;;;;;5027202;28;20674;-73
2024/01/26 04:36:45;;;;;;;8.55;0.95;;;;;;;;;;5026783;28;20052;-74
2024/01/26 04:39:13;;;;;;;7.63;2.08;;;;;;;;;;5027305;28;20037;-72
2024/01/26 04:41:41;;;;;;;1.95;0.75;;;;;;;;;;5026867;28;20030;-73
2024/01/26 04:44:09;;;;;;;3.17;0.98;;;;;;;;;;5027247;28;20092;-73
2024/01/26 04:46:37;;;;;;;6.05;1.73;;;;;;;;;;5027062;28;20037;-73
2024/01/26 04:49:05;;;;;;;1.38;0.63;;;;;;;;;;5042034;28;20048;-73
2024/01/26 04:51:33;;;;;;;1.88;0.38;;;;;;;;;;5027253;28;20042;-73
2024/01/26 04:54:00;;;;;;;3.20;0.60;;;;;;;;;;5042281;28;20049;-73
2024/01/26 04:56:28;;;;;;;1.65;0.38;;;;;;;;;;5035128;28;20091;-72
2024/01/26 04:58:55;;;;;;;0.65;0.60;;;;;;;;;;5027368;28;20640;-73
2024/01/26 05:01:24;;;;;;;0.65;0.50;;;;;;;;;;5041947;28;20104;-73
2024/01/26 05:03:51;;;;;;;2.05;1.38;;;;;;;;;;5042213;28;20485;-73
2024/01/26 05:06:19;;;;;;;2.05;0.90;;;;;;;;;;5042101;28;20124;-72
2024/01/26 05:08:47;;;;;;;2.25;1.38;;;;;;;;;;5026909;28;20045;-74
2024/01/26 05:11:16;;;;;;;1.00;0.35;;;;;;;;;;5026917;28;20561;-73
2024/01/26 05:13:44;;;;;;;3.75;2.83;;;;;;;;;;5026606;28;20064;-72
2024/01/26 05:16:11;;;;;;;3.70;1.23;;;;;;;;;;5026933;28;20108;-73
2024/01/26 05:18:39;;;;;;;6.40;1.08;;;;;;;;;;5027170;28;20285;-74
2024/01/26 05:21:07;;;;;;;0.00;0.00;;;;;;;;;;5026649;28;20124;-73
2024/01/26 05:23:35;;;;;;;2.10;0.60;;;;;;;;;;5026188;28;20046;-73
2024/01/26 05:26:03;;;;;;;0.28;0.28;;;;;;;;;;5026493;28;20042;-75
2024/01/26 05:28:31;;;;;;;0.52;0.52;;;;;;;;;;5041898;28;20140;-74
2024/01/26 05:30:59;;;;;;;0.22;0.22;;;;;;;;;;5026658;28;20491;-73
2024/01/26 05:33:26;;;;;;;22.38;1.95;;;;;;;;;;5026770;28;20132;-73
2024/01/26 05:35:54;;;;;;;1.73;1.02;;;;;;;;;;5026073;28;20103;-73
2024/01/26 05:38:22;;;;;;;0.45;0.43;;;;;;;;;;5027261;28;20041;-73
2024/01/26 05:40:49;;;;;;;0.70;0.38;;;;;;;;;;5030355;28;20053;-73
2024/01/26 05:43:17;;;;;;;1.67;1.45;;;;;;;;;;5045705;28;20037;-73
2024/01/26 05:45:44;;;;;;;9.38;2.10;;;;;;;;;;5030520;28;20071;-73
2024/01/26 05:48:12;;;;;;;0.20;0.20;;;;;;;;;;5029771;28;20128;-73
2024/01/26 05:50:40;;;;;;;2.00;0.95;;;;;;;;;;5045431;28;20045;-74
2024/01/26 05:53:07;;;;;;;2.63;0.77;;;;;;;;;;5028707;28;20041;-73
2024/01/26 05:55:35;;;;;;;1.45;1.17;;;;;;;;;;5029946;28;20044;-73
2024/01/26 05:58:03;;;;;;;1.45;0.98;;;;;;;;;;5028770;28;20041;-74
2024/01/26 06:00:31;;;;;;;3.85;0.13;;;;;;;;;;5029514;28;20038;-75
2024/01/26 06:02:58;;;;;;;3.20;1.50;;;;;;;;;;5029951;28;20048;-74
2024/01/26 06:05:26;;;;;;;5.28;1.52;;;;;;;;;;5030168;28;20147;-73
2024/01/26 06:07:56;;;;;;;0.47;0.17;;;;;;;;;;5030004;28;20091;-74
2024/01/26 06:10:23;;;;;;;5.75;1.25;;;;;;;;;;5045052;28;20123;-73
2024/01/26 06:12:51;;;;;;;0.75;0.40;;;;;;;;;;5029133;28;20061;-73
2024/01/26 06:15:18;;;;;;;1.92;1.40;;;;;;;;;;5029957;28;20037;-74
2024/01/26 06:17:49;;;;;;;0.95;0.70;;;;;;;;;;5029619;28;20099;-76
2024/01/26 06:20:17;;;;;;;0.70;0.70;;;;;;;;;;5029602;28;20045;-75
2024/01/26 06:22:44;;;;;;;1.55;1.00;;;;;;;;;;5029215;28;20045;-74
2024/01/26 06:25:12;;;;;;;1.50;1.40;;;;;;;;;;5029198;28;20132;-76
2024/01/26 06:27:40;;;;;;;5.63;0.75;;;;;;;;;;5029453;28;20037;-73
2024/01/26 06:30:08;;;;;;;0.00;0.00;;;;;;;;;;5029930;28;20045;-75
2024/01/26 06:32:37;;;;;;;5.97;1.80;;;;;;;;;;5028166;28;20053;-75
2024/01/26 06:35:05;;;;;;;9.23;2.85;;;;;;;;;;5029568;28;20038;-75
2024/01/26 06:37:33;;;;;;;1.45;1.23;;;;;;;;;;5044242;28;20034;-75
2024/01/26 06:40:01;;;;;;;4.32;2.03;;;;;;;;;;5045068;28;20129;-74
2024/01/26 06:42:30;;;;;;;1.25;0.93;;;;;;;;;;5028946;28;20410;-74
2024/01/26 06:44:58;;;;;;;1.45;0.90;;;;;;;;;;5044688;28;20053;-75
2024/01/26 06:47:25;;;;;;;0.57;0.57;;;;;;;;;;5044408;28;20080;-74
2024/01/26 06:49:53;;;;;;;6.00;1.65;;;;;;;;;;5028277;28;20044;-75
2024/01/26 06:52:21;;;;;;;2.22;1.42;;;;;;;;;;5029296;28;20041;-75
2024/01/26 06:54:48;;;;;;;2.40;1.35;;;;;;;;;;5028750;28;20037;-74
2024/01/26 06:57:16;;;;;;;2.95;1.38;;;;;;;;;;5028692;28;20120;-74
2024/01/26 06:59:43;;;;;;;2.88;1.90;;;;;;;;;;5028890;28;20053;-74
2024/01/26 07:02:11;;;;;;;3.67;1.33;;;;;;;;;;5028472;28;20438;-74
2024/01/26 07:04:39;;;;;;;4.35;1.70;;;;;;;;;;5029174;28;20053;-75
2024/01/26 07:07:06;;;;;;;0.30;0.30;;;;;;;;;;5021180;28;20146;-85
2024/01/26 07:09:34;;;;;;;4.15;3.80;;;;;;;;;;5015912;28;20046;-82
2024/01/26 07:12:03;;;;;;;3.42;2.35;;;;;;;;;;5010246;28;20125;-83
2024/01/26 07:14:30;;;;;;;5.28;0.98;;;;;;;;;;5013067;28;20057;-76
2024/01/26 07:16:58;;;;;;;0.47;0.22;;;;;;;;;;5012909;28;20077;-78
2024/01/26 07:19:25;;;;;;;4.97;1.20;;;;;;;;;;5013922;28;20050;-74
2024/01/26 07:21:53;;;;;;;0.00;0.00;;;;;;;;;;5013909;28;20065;-74
2024/01/26 07:24:21;;;;;;;1.35;0.60;;;;;;;;;;5013955;28;20069;-73
2024/01/26 07:26:48;;;;;;;1.25;1.15;;;;;;;;;;5020894;28;20026;-73
2024/01/26 07:29:16;;;;;;;7.88;0.45;;;;;;;;;;5024518;28;20065;-73
2024/01/26 07:31:46;;;;;;;2.55;1.70;;;;;;;;;;5032423;28;20116;-73
2024/01/26 07:34:14;;;;;;;2.25;1.25;;;;;;;;;;5033268;28;20065;-73
2024/01/26 07:36:42;;;;;;;5.43;1.42;;;;;;;;;;5033553;28;20076;-72
2024/01/26 07:39:10;;;;;;;3.13;1.17;;;;;;;;;;5033226;28;20083;-72
2024/01/26 07:41:37;;;;;;;5.95;2.10;;;;;;;;;;5033441;28;20041;-72
2024/01/26 07:44:05;;;;;;;0.73;0.47;;;;;;;;;;5031889;28;20046;-73
2024/01/26 07:46:33;;;;;;;4.30;1.52;;;;;;;;;;5031643;28;20091;-76
2024/01/26 07:49:00;;;;;;;0.15;0.15;;;;;;;;;;5013430;28;20038;-74
2024/01/26 07:51:28;;;;;;;1.52;1.10;;;;;;;;;;5017855;28;20133;-74
2024/01/26 07:53:56;;;;;;;1.33;1.05;;;;;;;;;;5019401;28;20196;-74
2024/01/26 07:56:24;;;;;;;2.33;1.17;;;;;;;;;;5021561;28;20119;-74
2024/01/26 07:58:51;;;;;;;1.15;0.90;;;;;;;;;;5010157;28;20054;-73
2024/01/26 08:01:19;;;;;;;4.70;1.58;;;;;;;;;;5025387;28;20037;-73
2024/01/26 08:03:47;;;;;;;2.72;2.08;;;;;;;;;;5013911;28;20107;-74
2024/01/26 08:06:17;;;;;;;2.92;0.90;;;;;;;;;;5009672;28;20128;-73
2024/01/26 08:08:45;;;;;;;0.10;0.10;;;;;;;;;;5023698;28;20037;-75
2024/01/26 08:11:13;;;;;;;1.48;0.55;;;;;;;;;;5021063;28;20141;-73
2024/01/26 08:13:44;;;;;;;1.88;1.45;;;;;;;;;;5026857;28;20048;-73
2024/01/26 08:16:16;;;;;;;6.38;2.67;;;;;;;;;;5026677;28;20042;-73
2024/01/26 08:18:44;;;;;;;2.30;1.70;;;;;;;;;;5013862;28;20046;-74
2024/01/26 08:21:12;;;;;;;3.55;2.58;;;;;;;;;;5027240;28;20802;-72
2024/01/26 08:23:39;;;;;;;3.60;1.25;;;;;;;;;;5027285;28;20042;-75
2024/01/26 08:26:08;;;;;;;3.35;1.42;;;;;;;;;;5025949;28;20629;-74
2024/01/26 08:28:36;;;;;;;4.82;2.05;;;;;;;;;;5042093;28;20065;-74
2024/01/26 08:31:05;;;;;;;0.90;0.80;;;;;;;;;;5027102;28;20065;-73
2024/01/26 08:33:33;;;;;;;5.47;1.85;;;;;;;;;;5027336;28;20394;-73
2024/01/26 08:36:01;;;;;;;13.48;3.10;;;;;;;;;;5026796;28;20572;-74
2024/01/26 08:38:29;;;;;;;0.47;0.47;;;;;;;;;;5021257;28;20049;-74
2024/01/26 08:40:56;;;;;;;0.65;0.65;;;;;;;;;;5022207;28;21333;-74
2024/01/26 08:43:24;;;;;;;3.55;1.00;;;;;;;;;;5012128;28;20157;-74
2024/01/26 08:45:52;;;;;;;0.85;0.82;;;;;;;;;;5012313;28;20660;-74
2024/01/26 08:48:19;;;;;;;1.67;0.90;;;;;;;;;;5014476;28;20137;-73
2024/01/26 08:50:47;;;;;;;4.90;1.98;;;;;;;;;;5009502;28;20545;-74
2024/01/26 08:53:15;;;;;;;0.63;0.63;;;;;;;;;;5011430;28;20044;-74
2024/01/26 08:55:43;;;;;;;2.65;1.67;;;;;;;;;;5011396;28;20069;-73
2024/01/26 08:58:11;;;;;;;4.38;2.55;;;;;;;;;;5024015;28;20545;-73
2024/01/26 09:00:40;;;;;;;3.03;1.33;;;;;;;;;;5026499;28;20095;-74
2024/01/26 09:03:08;;;;;;;1.77;0.30;;;;;;;;;;5026406;28;20045;-73
2024/01/26 09:05:35;;;;;;;4.95;2.33;;;;;;;;;;5023163;28;20072;-74
2024/01/26 09:08:04;;;;;;;2.28;1.27;;;;;;;;;;5012440;28;20042;-74
2024/01/26 09:10:34;;;;;;;4.55;2.58;;;;;;;;;;5012123;28;20038;-74
2024/01/26 09:13:02;;;;;;;0.45;0.43;;;;;;;;;;5014224;28;20045;-74
2024/01/26 09:15:30;;;;;;;3.38;2.88;;;;;;;;;;5020871;28;20118;-75
2024/01/26 09:17:57;;;;;;;6.68;3.17;;;;;;;;;;5016131;28;20523;-74
2024/01/26 09:20:25;;;;;;;7.93;2.72;;;;;;;;;;5028648;28;20045;-73
2024/01/26 09:22:53;;;;;;;2.38;1.98;;;;;;;;;;5017263;28;20073;-74
2024/01/26 09:25:20;;;;;;;5.38;2.13;;;;;;;;;;5018258;28;20046;-73
2024/01/26 09:27:48;;;;;;;8.43;2.78;;;;;;;;;;5020515;28;20387;-74
2024/01/26 09:30:16;;;;;;;2.40;2.30;;;;;;;;;;5021676;28;20041;-74
2024/01/26 09:32:44;;;;;;;1.70;1.42;;;;;;;;;;5020614;28;20054;-74
2024/01/26 09:35:14;;;;;;;3.80;2.45;;;;;;;;;;5021233;28;20033;-74
2024/01/26 09:37:42;;;;;;;2.47;1.08;;;;;;;;;;5039529;28;20532;-74
2024/01/26 09:40:12;;;;;;;4.95;3.08;;;;;;;;;;5025773;28;20061;-75
2024/01/26 09:42:40;;;;;;;2.70;1.60;;;;;;;;;;5025509;28;20120;-74
2024/01/26 09:45:11;;;;;;;1.15;1.08;;;;;;;;;;5026900;28;20041;-75
2024/01/26 09:47:39;;;;;;;0.40;0.40;;;;;;;;;;5026588;28;20288;-74
2024/01/26 09:50:07;;;;;;;4.15;2.35;;;;;;;;;;5026232;28;20040;-73
2024/01/26 09:52:36;;;;;;;5.93;2.38;;;;;;;;;;5027803;28;20502;-74
2024/01/26 09:55:05;;;;;;;7.38;2.88;;;;;;;;;;5029903;28;20033;-74
2024/01/26 09:57:33;;;;;;;0.70;0.65;;;;;;;;;;5030149;28;20048;-75
2024/01/26 10:00:01;;;;;;;3.60;2.45;;;;;;;;;;5028055;28;20069;-74
2024/01/26 10:02:30;;;;;;;1.30;0.77;;;;;;;;;;5010708;28;20046;-75
2024/01/26 10:04:58;;;;;;;4.47;2.10;;;;;;;;;;5010781;28;20124;-73
2024/01/26 10:07:26;;;;;;;1.00;0.68;;;;;;;;;;5010234;28;20042;-74
2024/01/26 10:09:53;;;;;;;1.83;1.55;;;;;;;;;;5010952;28;20101;-74
2024/01/26 10:12:23;;;;;;;0.22;0.22;;;;;;;;;;5011698;28;20072;-74
2024/01/26 10:15:01;;;;;;;2.00;1.13;;;;;;;;;;5010433;28;20502;-74
2024/01/26 10:17:30;;;;;;;6.32;3.47;;;;;;;;;;5015542;28;20486;-75
2024/01/26 10:20:08;;;;;;;1.02;0.63;;;;;;;;;;5019468;28;20041;-75
2024/01/26 10:22:39;;;;;;;3.13;1.92;;;;;;;;;;5012146;28;20053;-74
2024/01/26 10:25:07;;;;;;;4.82;2.60;;;;;;;;;;5008352;28;20545;-73
2024/01/26 10:27:35;;;;;;;6.22;3.33;;;;;;;;;;5028386;28;20120;-72
2024/01/26 10:30:05;;;;;;;5.30;3.10;;;;;;;;;;5033869;28;20438;-73
2024/01/26 10:32:33;;;;;;;3.17;1.63;;;;;;;;;;5032088;28;20042;-74
2024/01/26 10:35:04;;;;;;;0.20;0.17;;;;;;;;;;5032443;28;20414;-75
2024/01/26 10:37:32;;;;;;;1.15;1.05;;;;;;;;;;5034639;28;20042;-75
2024/01/26 10:40:01;;;;;;;2.53;2.30;;;;;;;;;;5034525;28;20045;-75
2024/01/26 10:42:32;;;;;;;3.40;1.95;;;;;;;;;;5034558;28;20045;-78
2024/01/26 10:45:00;;;;;;;2.80;1.73;;;;;;;;;;5034001;28;20457;-75
2024/01/26 10:47:28;;;;;;;0.38;0.38;;;;;;;;;;5032907;28;20103;-75
2024/01/26 10:50:05;;;;;;;3.70;2.55;;;;;;;;;;5033407;28;20037;-75
2024/01/26 10:52:37;;;;;;;3.55;1.98;;;;;;;;;;5033277;28;20049;-74
2024/01/26 10:55:06;;;;;;;0.60;0.28;;;;;;;;;;5034288;28;20461;-73
2024/01/26 10:57:34;;;;;;;1.33;0.65;;;;;;;;;;5034292;28;20125;-73
2024/01/26 11:00:04;;;;;;;1.75;1.35;;;;;;;;;;5034206;28;20461;-72
2024/01/26 11:02:33;;;;;;;3.42;1.52;;;;;;;;;;5033957;28;20112;-72
2024/01/26 11:05:07;;;;;;;0.25;0.25;;;;;;;;;;5034415;28;20423;-72
2024/01/26 11:07:35;;;;;;;0.00;0.00;;;;;;;;;;5034245;28;20041;-72
2024/01/26 11:10:04;;;;;;;0.47;0.47;;;;;;;;;;5034348;28;20394;-72
2024/01/26 11:12:34;;;;;;;0.05;0.05;;;;;;;;;;5033858;28;20042;-72
2024/01/26 11:15:24;;;;;;;0.05;0.05;;;;;;;;;;5032775;28;20041;-72
2024/01/26 11:17:59;;;;;;;0.80;0.80;;;;;;;;;;5034212;28;20399;-72
2024/01/26 11:20:30;;;;;;;0.00;0.00;;;;;;;;;;5033709;28;20141;-74
2024/01/26 11:23:11;;;;;;;0.20;0.10;;;;;;;;;;5033947;28;20551;-72
2024/01/26 11:25:43;;;;;;;2.92;1.00;;;;;;;;;;5033747;28;20160;-73
2024/01/26 11:28:11;;;;;;;3.08;1.25;;;;;;;;;;5033827;28;20037;-73
2024/01/26 11:30:39;;;;;;;1.23;0.75;;;;;;;;;;5033669;28;20116;-73
2024/01/26 11:33:21;;;;;;;0.40;0.40;;;;;;;;;;5033656;28;20034;-73
2024/01/26 11:35:50;;;;;;;0.00;0.00;;;;;;;;;;5033676;28;20057;-73
2024/01/26 11:38:18;;;;;;;1.55;1.45;;;;;;;;;;5033721;28;20434;-73
2024/01/26 11:40:46;;;;;;;0.43;0.35;;;;;;;;;;5033543;28;20115;-73
2024/01/26 11:43:14;;;;;;;2.15;0.55;;;;;;;;;;5033407;28;20042;-73
2024/01/26 11:45:43;;;;;;;4.05;1.42;;;;;;;;;;5033331;28;20080;-72
2024/01/26 11:48:11;;;;;;;1.50;1.00;;;;;;;;;;5032670;28;20068;-73
2024/01/26 11:50:43;;;;;;;1.50;0.47;;;;;;;;;;5033075;28;20392;-73
2024/01/26 11:53:13;;;;;;;0.10;0.10;;;;;;;;;;5031946;28;20072;-73
2024/01/26 11:55:45;;;;;;;0.00;0.00;;;;;;;;;;5033169;28;20061;-73
2024/01/26 11:58:16;;;;;;;0.00;0.00;;;;;;;;;;5033169;28;20618;-71
2024/01/26 12:00:43;;;;;;;3.25;0.88;;;;;;;;;;5033232;28;20045;-72
2024/01/26 12:03:13;;;;;;;0.00;0.00;;;;;;;;;;5033060;28;20125;-71
2024/01/26 12:05:41;;;;;;;1.85;0.98;;;;;;;;;;5031604;28;20051;-73
2024/01/26 12:08:10;;;;;;;0.32;0.32;;;;;;;;;;5032876;28;20049;-73
2024/01/26 12:10:37;;;;;;;0.10;0.10;;;;;;;;;;5032859;28;20037;-72
2024/01/26 12:13:06;;;;;;;0.73;0.20;;;;;;;;;;5032862;28;20046;-71
2024/01/26 12:15:39;;;;;;;1.42;0.98;;;;;;;;;;5032798;28;20048;-71
2024/01/26 12:18:11;;;;;;;2.55;0.65;;;;;;;;;;5032402;28;20041;-72
2024/01/26 12:20:40;;;;;;;9.13;0.65;;;;;;;;;;5032587;28;20128;-72
2024/01/26 12:23:15;;;;;;;0.10;0.10;;;;;;;;;;5032297;28;20050;-73
2024/01/26 12:25:42;;;;;;;0.95;0.75;;;;;;;;;;5032683;28;20402;-73
2024/01/26 12:28:10;;;;;;;0.00;0.00;;;;;;;;;;5034056;28;20414;-71
2024/01/26 12:30:38;;;;;;;0.40;0.40;;;;;;;;;;5033096;28;20044;-72
2024/01/26 12:33:08;;;;;;;0.00;0.00;;;;;;;;;;5032419;28;20048;-70
2024/01/26 12:35:40;;;;;;;0.00;0.00;;;;;;;;;;5032481;28;20042;-72
2024/01/26 12:38:08;;;;;;;0.05;0.05;;;;;;;;;;5032388;28;20673;-73
2024/01/26 12:40:36;;;;;;;0.00;0.00;;;;;;;;;;5032560;28;20046;-73
2024/01/26 12:43:04;;;;;;;0.17;0.17;;;;;;;;;;5031646;28;20559;-73
2024/01/26 12:45:32;;;;;;;0.28;0.28;;;;;;;;;;5030840;28;20053;-74
2024/01/26 12:48:00;;;;;;;0.20;0.20;;;;;;;;;;5031451;28;20491;-72
2024/01/26 12:50:27;;;;;;;0.00;0.00;;;;;;;;;;5032418;28;20107;-74
2024/01/26 12:52:55;;;;;;;0.00;0.00;;;;;;;;;;5031863;28;20116;-72
2024/01/26 12:55:23;;;;;;;2.22;0.93;;;;;;;;;;5028655;28;20066;-71
2024/01/26 12:57:51;;;;;;;2.33;0.47;;;;;;;;;;5025915;28;20551;-71
2024/01/26 13:00:19;;;;;;;0.35;0.35;;;;;;;;;;5022154;28;20093;-71
2024/01/26 13:02:47;;;;;;;0.05;0.05;;;;;;;;;;5024964;28;20041;-71
2024/01/26 13:05:16;;;;;;;0.75;0.55;;;;;;;;;;5022116;28;20056;-71
2024/01/26 13:07:44;;;;;;;0.00;0.00;;;;;;;;;;5017979;28;20049;-72
2024/01/26 13:10:11;;;;;;;0.75;0.35;;;;;;;;;;5016289;28;20060;-71
2024/01/26 13:12:39;;;;;;;0.03;0.03;;;;;;;;;;5024485;28;20132;-72
2024/01/26 13:15:07;;;;;;;0.10;0.10;;;;;;;;;;5022970;28;20069;-71
2024/01/26 13:17:35;;;;;;;2.63;2.35;;;;;;;;;;5020375;28;20083;-72
2024/01/26 13:20:05;;;;;;;0.30;0.17;;;;;;;;;;5012624;28;20045;-71
2024/01/26 13:22:49;;;;;;;4.03;0.45;;;;;;;;;;5022859;28;20045;-71
2024/01/26 13:25:17;;;;;;;0.00;0.00;;;;;;;;;;5020346;28;20046;-71
2024/01/26 13:27:45;;;;;;;0.10;0.10;;;;;;;;;;5014187;28;20044;-71
2024/01/26 13:30:14;;;;;;;0.00;0.00;;;;;;;;;;5024758;28;20065;-72
2024/01/26 13:32:47;;;;;;;0.28;0.28;;;;;;;;;;5025774;28;20091;-69
2024/01/26 13:35:15;;;;;;;0.00;0.00;;;;;;;;;;5025140;28;20053;-71
2024/01/26 13:37:43;;;;;;;0.00;0.00;;;;;;;;;;5010942;28;20056;-71
2024/01/26 13:40:10;;;;;;;0.10;0.10;;;;;;;;;;5007566;28;20049;-71
2024/01/26 13:42:41;;;;;;;0.00;0.00;;;;;;;;;;5007711;28;20153;-71
2024/01/26 13:45:11;;;;;;;0.00;0.00;;;;;;;;;;5006880;28;20163;-71
2024/01/26 13:47:40;;;;;;;0.00;0.00;;;;;;;;;;5007541;28;20060;-71
2024/01/26 13:50:15;;;;;;;0.38;0.10;;;;;;;;;;5012947;28;20049;-69
2024/01/26 13:52:43;;;;;;;0.00;0.00;;;;;;;;;;5026600;28;20049;-71
2024/01/26 13:55:11;;;;;;;0.38;0.20;;;;;;;;;;5026002;28;20049;-70
2024/01/26 13:57:39;;;;;;;0.00;0.00;;;;;;;;;;5026373;28;20035;-71
2024/01/26 14:00:09;;;;;;;0.00;0.00;;;;;;;;;;5027829;28;20034;-71
2024/01/26 14:02:50;;;;;;;0.00;0.00;;;;;;;;;;5029184;28;20115;-71
2024/01/26 14:05:18;;;;;;;0.00;0.00;;;;;;;;;;5029210;28;20584;-70
2024/01/26 14:07:46;;;;;;;0.47;0.47;;;;;;;;;;5029121;28;20502;-70
2024/01/26 14:10:16;;;;;;;0.95;0.88;;;;;;;;;;5029118;28;20494;-71
2024/01/26 14:12:44;;;;;;;1.75;1.63;;;;;;;;;;5029458;28;20045;-72
2024/01/26 14:15:13;;;;;;;0.00;0.00;;;;;;;;;;5029107;28;20084;-70
2024/01/26 14:17:42;;;;;;;0.00;0.00;;;;;;;;;;5029456;28;20068;-70
2024/01/26 14:20:10;;;;;;;10.50;0.70;;;;;;;;;;5028846;28;20049;-70
2024/01/26 14:22:38;;;;;;;0.00;0.00;;;;;;;;;;5029297;28;20124;-71
2024/01/26 14:25:06;;;;;;;0.00;0.00;;;;;;;;;;5029322;28;20041;-71
2024/01/26 14:27:34;;;;;;;0.00;0.00;;;;;;;;;;5029027;28;20049;-70
2024/01/26 14:30:01;;;;;;;0.00;0.00;;;;;;;;;;5029248;28;20045;-70
2024/01/26 14:32:31;;;;;;;0.00;0.00;;;;;;;;;;5028460;28;20045;-70
2024/01/26 14:34:59;;;;;;;1.45;0.30;;;;;;;;;;5029125;28;20494;-71
2024/01/26 14:37:27;;;;;;;0.00;0.00;;;;;;;;;;5029602;28;20041;-71
2024/01/26 14:39:57;;;;;;;2.42;2.22;;;;;;;;;;5027746;28;20045;-70
2024/01/26 14:42:25;;;;;;;0.00;0.00;;;;;;;;;;5029298;28;20045;-73
2024/01/26 14:44:53;;;;;;;0.00;0.00;;;;;;;;;;5027713;28;20048;-72
2024/01/26 14:47:20;;;;;;;0.00;0.00;;;;;;;;;;5028607;28;20064;-73
2024/01/26 14:49:48;;;;;;;0.00;0.00;;;;;;;;;;5021289;28;20511;-73